Time;durP1;ratioP1;P1;durP2;ratioP2;P2;SDS_P1;SDS_P2;PMS_P1;PMS_P2;Temp;Humidity;BMP_temperature;BMP_pressure;BME280_temperature;BME280_humidity;BME280_pressure;Samples;Min_cycle;Max_cycle;Signal;HPM_P1;HPM_P2
2022/04/10 00:02:17;;;;;;;3.65;3.33;;;4.30;99.90;;;;;;5139116;27;20288;-70
2022/04/10 00:04:43;;;;;;;4.00;3.70;;;4.20;99.90;;;;;;5121130;27;20201;-69
2022/04/10 00:07:11;;;;;;;3.60;3.30;;;4.20;99.90;;;;;;5139114;27;20214;-69
2022/04/10 00:09:37;;;;;;;5.78;4.70;;;4.10;99.90;;;;;;5121095;27;20229;-69
2022/04/10 00:12:04;;;;;;;7.28;3.55;;;4.10;99.90;;;;;;5137925;27;20204;-69
2022/04/10 00:14:31;;;;;;;6.18;3.83;;;4.00;99.90;;;;;;5139496;27;20251;-69
2022/04/10 00:16:57;;;;;;;4.85;3.88;;;4.00;99.90;;;;;;5138923;27;20204;-69
2022/04/10 00:19:24;;;;;;;3.95;3.40;;;3.90;99.90;;;;;;5120032;27;20224;-69
2022/04/10 00:21:50;;;;;;;5.55;3.70;;;3.90;99.90;;;;;;5137571;27;20198;-69
2022/04/10 00:24:17;;;;;;;6.25;3.65;;;3.80;99.90;;;;;;5118999;27;20219;-72
2022/04/10 00:26:44;;;;;;;5.05;3.55;;;3.80;99.90;;;;;;5136686;27;20198;-70
2022/04/10 00:29:11;;;;;;;4.93;3.88;;;3.70;99.90;;;;;;5138238;27;20194;-69
2022/04/10 00:31:37;;;;;;;7.47;4.22;;;3.70;99.90;;;;;;5119644;27;20194;-69
2022/04/10 00:34:04;;;;;;;6.65;3.90;;;3.60;99.90;;;;;;5120224;27;20621;-69
2022/04/10 00:36:30;;;;;;;7.47;3.90;;;3.60;99.90;;;;;;5137986;27;20194;-69
2022/04/10 00:38:58;;;;;;;5.78;3.20;;;3.50;99.90;;;;;;5119405;27;20202;-70
2022/04/10 00:41:24;;;;;;;4.45;3.65;;;3.40;99.90;;;;;;5119207;27;20198;-69
2022/04/10 00:44:07;;;;;;;5.47;3.95;;;3.40;99.90;;;;;;5137441;27;20193;-69
2022/04/10 00:46:33;;;;;;;4.90;4.47;;;3.40;99.90;;;;;;5137414;27;20193;-69
2022/04/10 00:49:00;;;;;;;5.90;4.60;;;3.40;99.90;;;;;;5137117;27;20198;-69
2022/04/10 00:51:46;;;;;;;6.65;4.50;;;3.40;99.90;;;;;;5136761;27;20272;-69
2022/04/10 00:54:18;;;;;;;6.43;4.47;;;3.30;99.90;;;;;;5137111;28;20257;-69
2022/04/10 00:56:45;;;;;;;7.70;5.05;;;3.20;99.90;;;;;;5118971;28;20223;-69
2022/04/10 00:59:12;;;;;;;8.40;4.50;;;3.20;99.90;;;;;;5118137;28;20201;-69
2022/04/10 01:01:44;;;;;;;9.68;4.47;;;3.20;99.90;;;;;;5137697;28;20204;-69
2022/04/10 01:04:12;;;;;;;7.28;4.88;;;3.20;99.90;;;;;;5137494;28;20198;-69
2022/04/10 01:06:40;;;;;;;5.45;4.43;;;3.10;99.90;;;;;;5137204;27;20225;-72
2022/04/10 01:09:07;;;;;;;7.18;5.32;;;3.10;99.90;;;;;;5135872;28;20229;-72
2022/04/10 01:11:34;;;;;;;8.18;4.55;;;3.10;99.90;;;;;;5136663;28;20194;-72
2022/04/10 01:14:02;;;;;;;5.13;4.72;;;3.10;99.90;;;;;;5136030;28;20202;-72
2022/04/10 01:16:30;;;;;;;5.97;4.53;;;3.00;99.90;;;;;;5136471;28;20198;-73
2022/04/10 01:18:58;;;;;;;5.45;4.82;;;3.00;99.90;;;;;;5136337;28;20198;-72
2022/04/10 01:21:26;;;;;;;7.60;5.05;;;3.00;99.90;;;;;;5136235;28;20225;-73
2022/04/10 01:23:54;;;;;;;12.95;4.63;;;3.00;99.90;;;;;;5136886;28;20283;-73
2022/04/10 01:26:23;;;;;;;9.38;5.10;;;3.00;99.90;;;;;;5136519;28;20198;-73
2022/04/10 01:28:58;;;;;;;5.60;4.60;;;3.00;99.90;;;;;;5136271;28;20204;-72
2022/04/10 01:31:26;;;;;;;7.47;4.60;;;2.90;99.90;;;;;;5135555;28;20593;-73
2022/04/10 01:33:56;;;;;;;5.57;5.07;;;3.00;99.90;;;;;;5117145;28;20198;-73
2022/04/10 01:36:25;;;;;;;5.63;4.68;;;3.00;99.90;;;;;;5135404;28;20262;-72
2022/04/10 01:38:54;;;;;;;5.25;4.70;;;3.00;99.90;;;;;;5134943;27;20527;-72
2022/04/10 01:41:21;;;;;;;6.72;4.72;;;3.00;99.90;;;;;;5138471;27;20217;-73
2022/04/10 01:43:49;;;;;;;6.65;4.55;;;3.00;99.90;;;;;;5139073;27;20205;-72
2022/04/10 01:46:16;;;;;;;5.88;4.70;;;3.00;99.90;;;;;;5139605;27;20315;-72
2022/04/10 01:48:43;;;;;;;7.60;5.35;;;3.00;99.90;;;;;;5139458;27;20201;-72
2022/04/10 01:51:09;;;;;;;5.90;5.05;;;2.90;99.90;;;;;;5139582;27;20207;-72
2022/04/10 01:53:36;;;;;;;5.63;5.22;;;3.00;99.90;;;;;;5139390;27;20204;-72
2022/04/10 01:56:04;;;;;;;5.88;5.28;;;2.90;99.90;;;;;;5139465;27;20255;-73
2022/04/10 01:58:31;;;;;;;5.15;4.05;;;2.90;99.90;;;;;;5139628;27;20202;-73
2022/04/10 02:01:00;;;;;;;7.47;4.70;;;2.90;99.90;;;;;;5139814;27;20274;-72
2022/04/10 02:03:27;;;;;;;5.13;4.63;;;2.90;99.90;;;;;;5120664;27;20222;-73
2022/04/10 02:05:53;;;;;;;9.88;5.45;;;2.90;99.90;;;;;;5139074;27;20210;-72
2022/04/10 02:08:19;;;;;;;5.28;4.65;;;2.90;99.90;;;;;;5139119;27;20229;-72
2022/04/10 02:10:46;;;;;;;7.43;4.45;;;2.90;99.90;;;;;;5139226;27;20186;-72
2022/04/10 02:13:12;;;;;;;7.97;5.10;;;2.90;99.90;;;;;;5139197;27;20206;-72
2022/04/10 02:15:39;;;;;;;10.20;5.32;;;2.90;99.90;;;;;;5139118;27;20202;-72
2022/04/10 02:18:06;;;;;;;5.28;4.78;;;2.80;99.90;;;;;;5139531;27;20205;-72
2022/04/10 02:20:33;;;;;;;6.90;4.88;;;2.80;99.90;;;;;;5138792;27;20584;-72
2022/04/10 02:22:59;;;;;;;8.05;5.00;;;2.70;99.90;;;;;;5138549;27;20190;-72
2022/04/10 02:25:26;;;;;;;10.13;5.45;;;2.70;99.90;;;;;;5139209;27;20223;-72
2022/04/10 02:27:52;;;;;;;9.10;5.07;;;2.70;99.90;;;;;;5138243;27;20266;-72
2022/04/10 02:30:19;;;;;;;5.22;4.82;;;2.70;99.90;;;;;;5138862;27;20259;-70
2022/04/10 02:32:45;;;;;;;9.00;5.70;;;2.70;99.90;;;;;;5140249;27;20197;-69
2022/04/10 02:35:12;;;;;;;8.63;5.55;;;2.60;99.90;;;;;;5139348;27;20201;-70
2022/04/10 02:37:38;;;;;;;6.00;4.97;;;2.60;99.90;;;;;;5140403;27;20201;-69
2022/04/10 02:40:06;;;;;;;8.60;5.32;;;2.60;99.90;;;;;;5140146;27;20240;-69
2022/04/10 02:42:34;;;;;;;6.40;5.80;;;2.50;99.90;;;;;;5121856;27;20680;-69
2022/04/10 02:45:04;;;;;;;7.80;5.00;;;2.50;99.90;;;;;;5140093;27;20198;-69
2022/04/10 02:47:30;;;;;;;5.82;5.32;;;2.40;99.90;;;;;;5140291;27;20201;-69
2022/04/10 02:49:57;;;;;;;7.03;5.30;;;2.40;99.90;;;;;;5120980;27;20707;-69
2022/04/10 02:52:23;;;;;;;5.45;4.60;;;2.40;99.90;;;;;;5139339;27;20657;-69
2022/04/10 02:54:50;;;;;;;7.35;4.80;;;2.40;99.90;;;;;;5139596;27;20201;-69
2022/04/10 02:57:16;;;;;;;8.93;5.32;;;2.40;99.90;;;;;;5139497;27;20202;-69
2022/04/10 02:59:43;;;;;;;5.45;4.85;;;2.30;99.90;;;;;;5139468;27;20213;-69
2022/04/10 03:02:09;;;;;;;6.15;4.90;;;2.30;99.90;;;;;;5138353;27;20661;-69
2022/04/10 03:04:36;;;;;;;5.68;5.13;;;2.40;99.90;;;;;;5139076;27;20190;-69
2022/04/10 03:07:03;;;;;;;5.97;5.38;;;2.40;99.90;;;;;;5138507;27;20217;-69
2022/04/10 03:09:29;;;;;;;5.90;5.30;;;2.40;99.90;;;;;;5120412;27;20237;-70
2022/04/10 03:11:56;;;;;;;6.68;5.30;;;2.40;99.90;;;;;;5121316;27;20190;-69
2022/04/10 03:14:22;;;;;;;6.85;4.90;;;2.50;99.90;;;;;;5139087;27;20190;-69
2022/04/10 03:16:49;;;;;;;8.90;5.25;;;2.60;99.90;;;;;;5139482;27;20641;-69
2022/04/10 03:19:15;;;;;;;6.00;4.90;;;2.60;99.90;;;;;;5138030;27;20247;-69
2022/04/10 03:21:42;;;;;;;6.45;5.18;;;2.70;99.90;;;;;;5138831;27;20589;-69
2022/04/10 03:24:08;;;;;;;5.63;5.13;;;2.70;99.90;;;;;;5119939;27;20194;-69
2022/04/10 03:26:34;;;;;;;6.97;5.55;;;2.70;99.90;;;;;;5138399;27;20194;-69
2022/04/10 03:29:01;;;;;;;11.55;5.95;;;2.70;99.90;;;;;;5137819;27;20681;-69
2022/04/10 03:31:27;;;;;;;5.32;4.82;;;2.80;99.90;;;;;;5138100;27;20569;-70
2022/04/10 03:33:54;;;;;;;8.32;5.40;;;2.80;99.90;;;;;;5138118;27;20202;-69
2022/04/10 03:36:20;;;;;;;5.85;5.07;;;2.80;99.90;;;;;;5137960;27;20206;-69
2022/04/10 03:38:46;;;;;;;6.13;5.63;;;2.80;99.90;;;;;;5138596;27;20205;-69
2022/04/10 03:41:13;;;;;;;9.15;5.40;;;2.80;99.90;;;;;;5102384;27;20214;-70
2022/04/10 03:43:39;;;;;;;6.40;5.57;;;2.80;99.90;;;;;;5137470;27;20198;-69
2022/04/10 03:46:06;;;;;;;5.47;4.90;;;2.80;99.90;;;;;;5119708;27;20198;-69
2022/04/10 03:48:32;;;;;;;6.40;4.75;;;2.70;99.90;;;;;;5138617;27;20194;-69
2022/04/10 03:50:58;;;;;;;7.05;5.93;;;2.60;99.90;;;;;;5139005;27;20202;-70
2022/04/10 03:53:25;;;;;;;7.03;5.22;;;2.50;99.90;;;;;;5120193;27;20201;-70
2022/04/10 03:55:52;;;;;;;6.20;5.32;;;2.60;99.90;;;;;;5120184;27;20204;-69
2022/04/10 03:58:18;;;;;;;6.57;5.78;;;2.60;99.90;;;;;;5138928;27;20202;-69
2022/04/10 04:00:46;;;;;;;5.80;5.30;;;2.60;99.90;;;;;;5119762;27;20221;-69
2022/04/10 04:03:12;;;;;;;7.40;5.25;;;2.60;99.90;;;;;;5118774;27;20201;-69
2022/04/10 04:05:39;;;;;;;6.15;5.57;;;2.60;99.90;;;;;;5137527;27;20222;-69
2022/04/10 04:08:05;;;;;;;7.68;4.90;;;2.60;99.90;;;;;;5137637;27;20202;-69
2022/04/10 04:10:33;;;;;;;5.15;4.72;;;2.60;99.90;;;;;;5137961;27;20269;-69
2022/04/10 04:13:00;;;;;;;6.13;5.60;;;2.60;99.90;;;;;;5137457;27;20213;-69
2022/04/10 04:15:34;;;;;;;10.82;6.65;;;2.50;99.90;;;;;;5137523;27;20202;-69
2022/04/10 04:18:00;;;;;;;7.90;5.63;;;2.40;99.90;;;;;;5119112;27;20185;-69
2022/04/10 04:20:27;;;;;;;7.28;5.75;;;2.40;99.90;;;;;;5137431;27;20222;-69
2022/04/10 04:22:56;;;;;;;12.23;6.47;;;2.40;99.90;;;;;;5118802;27;20194;-69
2022/04/10 04:25:22;;;;;;;8.43;6.50;;;2.40;99.90;;;;;;5136520;27;20253;-69
2022/04/10 04:27:49;;;;;;;8.00;6.40;;;2.30;99.90;;;;;;5137339;27;20198;-69
2022/04/10 04:30:15;;;;;;;8.90;6.10;;;2.30;99.90;;;;;;5137590;27;20541;-70
2022/04/10 04:32:42;;;;;;;6.93;6.30;;;2.30;99.90;;;;;;5135735;27;20202;-69
2022/04/10 04:35:10;;;;;;;6.82;6.00;;;2.30;99.90;;;;;;5137126;27;20206;-69
2022/04/10 04:37:40;;;;;;;9.57;6.22;;;2.20;99.90;;;;;;5136950;27;20556;-69
2022/04/10 04:40:08;;;;;;;7.47;6.55;;;2.20;99.90;;;;;;5136216;27;20229;-69
2022/04/10 04:42:34;;;;;;;7.25;6.35;;;2.20;99.90;;;;;;5136255;27;20730;-69
2022/04/10 04:45:01;;;;;;;10.13;6.80;;;2.20;99.90;;;;;;5136539;27;20441;-69
2022/04/10 04:47:27;;;;;;;8.10;6.70;;;2.10;99.90;;;;;;5136570;27;20209;-69
2022/04/10 04:49:55;;;;;;;6.85;6.25;;;2.10;99.90;;;;;;5136278;27;20206;-69
2022/04/10 04:52:21;;;;;;;6.47;5.63;;;2.10;99.90;;;;;;5136363;27;20288;-70
2022/04/10 04:54:51;;;;;;;8.38;6.30;;;2.10;99.90;;;;;;5136892;27;20197;-69
2022/04/10 04:57:17;;;;;;;11.77;6.40;;;2.10;99.90;;;;;;5136056;27;20209;-69
2022/04/10 04:59:43;;;;;;;7.78;6.15;;;2.10;99.90;;;;;;5117643;28;20197;-69
2022/04/10 05:02:11;;;;;;;8.40;6.85;;;2.20;99.90;;;;;;5118204;28;20217;-70
2022/04/10 05:04:37;;;;;;;7.35;5.55;;;2.20;99.90;;;;;;5136209;28;20201;-69
2022/04/10 05:07:04;;;;;;;5.65;5.10;;;2.30;99.90;;;;;;5135202;27;20697;-69
2022/04/10 05:09:30;;;;;;;7.10;6.40;;;2.30;99.90;;;;;;5134950;28;20225;-69
2022/04/10 05:11:57;;;;;;;8.45;6.20;;;2.40;99.90;;;;;;5136145;28;20204;-69
2022/04/10 05:14:23;;;;;;;6.75;6.15;;;2.30;99.90;;;;;;5136996;27;20564;-69
2022/04/10 05:16:49;;;;;;;8.10;6.38;;;2.40;99.90;;;;;;5139252;28;20204;-69
2022/04/10 05:19:16;;;;;;;8.02;5.97;;;2.40;99.90;;;;;;5121351;28;20205;-69
2022/04/10 05:21:43;;;;;;;6.68;5.97;;;2.40;99.90;;;;;;5138261;28;20221;-69
2022/04/10 05:24:09;;;;;;;6.72;6.03;;;2.40;99.90;;;;;;5139256;28;20563;-69
2022/04/10 05:26:35;;;;;;;8.68;6.60;;;2.40;99.90;;;;;;5138621;28;20206;-69
2022/04/10 05:29:02;;;;;;;10.38;6.38;;;2.40;99.90;;;;;;5104067;28;20254;-69
2022/04/10 05:31:28;;;;;;;11.60;6.30;;;2.50;99.90;;;;;;5139631;28;20205;-69
2022/04/10 05:33:55;;;;;;;7.30;6.22;;;2.50;99.90;;;;;;5139132;28;20216;-69
2022/04/10 05:36:21;;;;;;;7.30;5.90;;;2.60;99.90;;;;;;5121778;28;20275;-69
2022/04/10 05:38:48;;;;;;;7.20;6.50;;;2.60;99.90;;;;;;5139192;28;20201;-69
2022/04/10 05:41:14;;;;;;;8.00;6.07;;;2.60;99.90;;;;;;5138579;28;20218;-69
2022/04/10 05:43:41;;;;;;;6.50;5.90;;;2.60;99.90;;;;;;5120485;28;20201;-69
2022/04/10 05:46:07;;;;;;;8.93;6.47;;;2.70;99.90;;;;;;5137694;28;20285;-69
2022/04/10 05:48:34;;;;;;;7.47;6.18;;;2.70;99.90;;;;;;5138806;28;20201;-69
2022/04/10 05:51:00;;;;;;;9.20;6.18;;;2.70;99.90;;;;;;5139126;28;20201;-69
2022/04/10 05:53:26;;;;;;;6.95;6.35;;;2.70;99.90;;;;;;5138993;28;20209;-69
2022/04/10 05:55:53;;;;;;;6.35;5.70;;;2.70;99.90;;;;;;5120476;28;20201;-69
2022/04/10 05:58:19;;;;;;;7.43;6.53;;;2.80;99.90;;;;;;5138846;28;20210;-71
2022/04/10 06:00:46;;;;;;;5.85;5.35;;;2.80;99.90;;;;;;5136491;28;20220;-71
2022/04/10 06:03:12;;;;;;;9.25;6.07;;;2.90;99.90;;;;;;5137809;28;20202;-70
2022/04/10 06:05:39;;;;;;;6.90;5.90;;;3.00;99.90;;;;;;5138459;27;20213;-69
2022/04/10 06:08:05;;;;;;;5.85;5.35;;;3.00;99.90;;;;;;5099143;27;1094390;-69
2022/04/10 06:10:32;;;;;;;7.43;5.50;;;3.00;99.90;;;;;;5140361;27;20193;-69
2022/04/10 06:13:11;;;;;;;8.55;5.90;;;3.00;99.90;;;;;;5139859;27;20202;-69
2022/04/10 06:15:37;;;;;;;9.80;6.18;;;2.90;99.90;;;;;;5121765;27;20660;-69
2022/04/10 06:18:04;;;;;;;8.00;7.18;;;3.10;99.90;;;;;;5140198;27;20206;-69
2022/04/10 06:20:30;;;;;;;10.38;7.00;;;3.10;99.90;;;;;;5121334;27;20218;-69
2022/04/10 06:22:56;;;;;;;7.72;7.03;;;3.00;99.90;;;;;;5139268;27;20227;-69
2022/04/10 06:25:23;;;;;;;11.57;7.13;;;3.10;99.90;;;;;;5120452;27;20198;-69
2022/04/10 06:27:49;;;;;;;7.75;5.72;;;3.30;99.90;;;;;;5102760;27;20200;-69
2022/04/10 06:30:16;;;;;;;7.50;6.70;;;3.30;99.90;;;;;;5120986;27;20202;-69
2022/04/10 06:32:42;;;;;;;9.63;7.50;;;3.40;99.90;;;;;;5139472;27;20210;-69
2022/04/10 06:35:09;;;;;;;7.32;6.63;;;3.40;99.90;;;;;;5139212;27;20202;-69
2022/04/10 06:37:36;;;;;;;15.50;7.25;;;3.40;99.90;;;;;;5139164;27;20216;-69
2022/04/10 06:40:02;;;;;;;6.47;5.85;;;3.60;99.90;;;;;;5138673;27;20208;-69
2022/04/10 06:42:29;;;;;;;8.90;6.88;;;3.70;99.90;;;;;;5119919;27;20218;-71
2022/04/10 06:44:55;;;;;;;7.60;6.68;;;3.80;99.90;;;;;;5138215;27;20333;-71
2022/04/10 06:47:22;;;;;;;7.00;6.38;;;3.80;99.90;;;;;;5138511;27;20189;-72
2022/04/10 06:49:48;;;;;;;7.47;6.15;;;3.80;99.90;;;;;;5119424;27;20194;-71
2022/04/10 06:52:15;;;;;;;8.73;7.20;;;4.00;99.90;;;;;;5138295;27;20209;-72
2022/04/10 06:54:41;;;;;;;11.32;6.97;;;4.00;99.90;;;;;;5137870;27;20208;-72
2022/04/10 06:57:07;;;;;;;7.43;6.70;;;4.10;99.90;;;;;;5138182;27;20213;-71
2022/04/10 06:59:34;;;;;;;8.63;7.28;;;4.10;99.90;;;;;;5136934;27;20202;-71
2022/04/10 07:02:01;;;;;;;9.90;6.95;;;4.10;99.90;;;;;;5137560;27;20692;-72
2022/04/10 07:04:27;;;;;;;7.90;6.97;;;4.10;99.90;;;;;;5136711;27;20657;-72
2022/04/10 07:06:54;;;;;;;10.50;6.75;;;4.30;99.90;;;;;;5101528;27;20217;-72
2022/04/10 07:09:20;;;;;;;11.88;8.25;;;4.40;99.90;;;;;;5137437;27;20646;-73
2022/04/10 07:11:46;;;;;;;7.63;6.93;;;4.40;99.90;;;;;;5137902;27;20213;-73
2022/04/10 07:14:13;;;;;;;7.50;6.80;;;4.50;99.90;;;;;;5137690;27;20197;-72
2022/04/10 07:16:39;;;;;;;11.10;5.85;;;4.50;99.90;;;;;;5137652;27;20202;-72
2022/04/10 07:19:06;;;;;;;7.55;6.05;;;4.60;99.90;;;;;;5119229;27;20194;-73
2022/04/10 07:24:17;;;;;;;7.40;6.57;;;4.90;99.90;;;;;;5137220;27;20247;-72
2022/04/10 07:26:44;;;;;;;7.93;6.70;;;4.90;99.90;;;;;;5137106;27;20201;-72
2022/04/10 07:29:12;;;;;;;10.02;7.35;;;4.90;99.90;;;;;;5137485;27;20568;-72
2022/04/10 07:31:40;;;;;;;7.00;6.22;;;5.00;99.90;;;;;;5136867;27;20243;-72
2022/04/10 07:34:07;;;;;;;7.70;6.32;;;5.10;99.90;;;;;;5137453;27;20202;-73
2022/04/10 07:36:33;;;;;;;7.50;6.35;;;5.10;99.90;;;;;;5137076;27;20233;-72
2022/04/10 07:39:00;;;;;;;8.95;7.05;;;5.20;99.90;;;;;;5136187;27;20198;-73
2022/04/10 07:41:26;;;;;;;9.80;6.80;;;5.10;99.90;;;;;;5137210;27;20304;-72
2022/04/10 07:43:53;;;;;;;9.40;7.20;;;5.30;99.90;;;;;;5136958;27;20194;-72
2022/04/10 07:49:05;;;;;;;8.70;6.80;;;5.30;99.90;;;;;;5137267;27;20189;-73
2022/04/10 07:51:32;;;;;;;14.82;6.93;;;5.50;99.90;;;;;;5136058;27;20206;-70
2022/04/10 07:53:58;;;;;;;9.30;5.82;;;5.70;99.90;;;;;;5117846;27;20209;-70
2022/04/10 07:56:25;;;;;;;9.35;5.25;;;5.70;99.90;;;;;;5136725;27;20201;-71
2022/04/10 07:58:51;;;;;;;6.95;6.35;;;5.90;99.90;;;;;;5118224;27;20213;-70
2022/04/10 08:01:18;;;;;;;6.80;5.55;;;6.10;99.90;;;;;;5136268;27;20222;-71
2022/04/10 08:03:46;;;;;;;6.38;5.05;;;6.10;99.90;;;;;;5136584;27;20205;-70
2022/04/10 08:06:12;;;;;;;6.00;5.22;;;6.40;99.90;;;;;;5135754;27;20217;-70
2022/04/10 08:08:39;;;;;;;5.78;5.28;;;6.30;99.90;;;;;;5136270;27;20226;-71
2022/04/10 08:11:06;;;;;;;5.80;5.30;;;6.60;99.90;;;;;;5135801;27;20569;-70
2022/04/10 08:13:33;;;;;;;7.53;5.03;;;6.70;99.90;;;;;;5134946;27;20209;-70
2022/04/10 08:16:01;;;;;;;7.90;4.97;;;6.60;99.90;;;;;;5135686;27;20650;-70
2022/04/10 08:18:27;;;;;;;6.78;5.85;;;6.70;99.90;;;;;;5136220;27;20206;-70
2022/04/10 08:20:54;;;;;;;6.47;5.80;;;7.10;99.90;;;;;;5135945;27;20229;-71
2022/04/10 08:23:20;;;;;;;6.95;5.00;;;7.30;99.90;;;;;;5136250;27;20193;-71
2022/04/10 08:25:47;;;;;;;6.63;5.82;;;7.40;99.90;;;;;;5135474;27;20205;-70
2022/04/10 08:28:14;;;;;;;6.13;4.93;;;7.60;99.90;;;;;;5135084;27;20247;-71
2022/04/10 08:30:40;;;;;;;8.48;5.50;;;8.00;99.90;;;;;;5136153;27;20193;-70
2022/04/10 08:33:08;;;;;;;6.53;5.65;;;8.40;99.90;;;;;;5135587;27;20201;-70
2022/04/10 08:35:34;;;;;;;6.57;5.10;;;8.30;99.90;;;;;;5135189;27;20205;-70
2022/04/10 08:38:02;;;;;;;5.85;5.15;;;8.50;99.90;;;;;;5135956;27;20559;-70
2022/04/10 08:40:32;;;;;;;6.63;5.10;;;7.40;99.90;;;;;;5135210;27;20201;-70
2022/04/10 08:43:04;;;;;;;7.70;5.60;;;7.30;99.90;;;;;;5136551;27;20206;-70
2022/04/10 08:45:31;;;;;;;7.05;5.45;;;7.30;99.90;;;;;;5135170;27;20247;-70
2022/04/10 08:47:58;;;;;;;5.68;5.18;;;7.10;99.90;;;;;;5135740;27;20198;-69
2022/04/10 08:50:26;;;;;;;5.57;5.05;;;7.40;99.90;;;;;;5136267;27;20194;-70
2022/04/10 08:52:56;;;;;;;6.53;5.35;;;7.50;99.90;;;;;;5135577;27;20261;-69
2022/04/10 08:55:23;;;;;;;8.23;5.97;;;7.90;99.90;;;;;;5135198;27;20250;-69
2022/04/10 08:57:50;;;;;;;5.80;5.30;;;7.80;99.90;;;;;;5134692;27;20209;-69
2022/04/10 09:00:19;;;;;;;12.77;6.30;;;7.80;99.90;;;;;;5136146;27;20208;-70
2022/04/10 09:02:47;;;;;;;6.10;5.50;;;8.00;99.90;;;;;;5136066;28;20221;-69
2022/04/10 09:05:24;;;;;;;12.23;5.82;;;8.70;99.90;;;;;;5136457;27;20194;-70
2022/04/10 09:11:15;;;;;;;5.45;4.95;;;8.60;99.90;;;;;;5136206;28;20186;-69
2022/04/10 09:13:49;;;;;;;6.18;5.57;;;8.40;99.90;;;;;;5136137;28;20206;-69
2022/04/10 09:16:22;;;;;;;7.60;5.20;;;8.60;99.90;;;;;;5135375;28;20412;-69
2022/04/10 09:19:08;;;;;;;5.90;5.40;;;9.50;99.90;;;;;;5135640;28;20186;-70
2022/04/10 09:21:36;;;;;;;6.15;5.60;;;8.60;99.90;;;;;;5135974;28;20232;-69
2022/04/10 09:24:09;;;;;;;5.40;5.00;;;8.60;99.90;;;;;;5134481;28;20208;-69
2022/04/10 09:26:46;;;;;;;6.35;5.20;;;8.70;99.90;;;;;;5134974;28;20573;-70
2022/04/10 09:29:21;;;;;;;7.25;5.55;;;9.30;99.90;;;;;;5135295;28;20198;-69
2022/04/10 09:31:49;;;;;;;7.25;5.00;;;9.70;99.90;;;;;;5135159;28;20178;-69
2022/04/10 09:34:17;;;;;;;5.97;4.85;;;9.40;99.90;;;;;;5135423;28;20221;-69
2022/04/10 09:36:57;;;;;;;5.63;5.22;;;9.60;99.90;;;;;;5135688;28;20314;-69
2022/04/10 09:39:31;;;;;;;6.30;5.70;;;9.80;99.90;;;;;;5135989;28;20189;-69
2022/04/10 09:42:06;;;;;;;8.45;6.22;;;9.50;99.90;;;;;;5135535;28;20210;-69
2022/04/10 09:44:34;;;;;;;6.00;5.50;;;9.60;99.90;;;;;;5116955;28;20218;-70
2022/04/10 09:47:11;;;;;;;5.97;5.38;;;9.90;99.90;;;;;;5135869;28;20261;-69
2022/04/10 09:49:41;;;;;;;7.80;5.60;;;10.20;99.90;;;;;;5135486;28;20303;-69
2022/04/10 09:52:08;;;;;;;6.53;6.03;;;10.10;99.90;;;;;;5135857;28;20263;-69
2022/04/10 09:54:43;;;;;;;5.47;5.07;;;10.10;99.90;;;;;;5134989;28;20206;-69
2022/04/10 09:57:14;;;;;;;8.45;6.25;;;10.00;99.90;;;;;;5135442;28;20565;-69
2022/04/10 09:59:43;;;;;;;6.30;5.60;;;9.70;99.90;;;;;;5135117;27;20202;-70
2022/04/10 10:02:11;;;;;;;9.85;5.60;;;9.80;99.90;;;;;;5138597;27;20229;-69
2022/04/10 10:04:39;;;;;;;5.90;5.18;;;10.20;99.90;;;;;;5139177;27;20228;-69
2022/04/10 10:07:19;;;;;;;7.35;5.50;;;9.90;99.90;;;;;;5138897;27;20217;-69
2022/04/10 10:09:46;;;;;;;6.25;5.65;;;9.90;99.90;;;;;;5139011;27;20229;-69
2022/04/10 10:12:14;;;;;;;5.82;5.28;;;10.00;99.90;;;;;;5138895;27;20201;-69
2022/04/10 10:14:41;;;;;;;6.93;6.00;;;9.90;99.90;;;;;;5139393;27;20200;-69
2022/04/10 10:17:09;;;;;;;7.18;5.75;;;10.30;99.90;;;;;;5137686;27;20202;-70
2022/04/10 10:19:43;;;;;;;5.70;5.20;;;10.40;99.90;;;;;;5139287;27;20284;-70
2022/04/10 10:22:15;;;;;;;6.10;5.68;;;10.40;99.90;;;;;;5139081;27;20570;-70
2022/04/10 10:24:58;;;;;;;6.53;5.78;;;10.20;99.90;;;;;;5140317;27;20258;-70
2022/04/10 10:27:31;;;;;;;6.22;5.60;;;10.60;99.90;;;;;;5140528;27;20189;-70
2022/04/10 10:30:29;;;;;;;5.45;5.05;;;10.80;99.90;;;;;;5121944;27;20194;-70
2022/04/10 10:33:09;;;;;;;6.28;5.68;;;10.40;99.90;;;;;;5139769;27;20189;-70
2022/04/10 10:35:42;;;;;;;11.77;6.32;;;10.20;99.90;;;;;;5139363;27;20186;-70
2022/04/10 10:38:22;;;;;;;9.02;7.22;;;10.30;99.90;;;;;;5139249;27;20182;-70
2022/04/10 10:40:50;;;;;;;6.00;5.40;;;9.80;99.90;;;;;;5140249;27;20193;-70
2022/04/10 10:43:23;;;;;;;7.10;5.35;;;9.60;99.90;;;;;;5139171;27;20213;-70
2022/04/10 10:45:52;;;;;;;6.45;5.40;;;9.60;99.90;;;;;;5139470;27;20193;-70
2022/04/10 10:48:25;;;;;;;5.75;4.90;;;9.60;99.90;;;;;;5121589;27;20277;-70
2022/04/10 10:50:53;;;;;;;5.25;4.85;;;9.20;99.90;;;;;;5121028;27;20685;-70
2022/04/10 10:53:48;;;;;;;6.55;6.10;;;9.60;99.90;;;;;;5139659;27;20202;-70
2022/04/10 10:56:18;;;;;;;6.70;6.10;;;10.30;99.90;;;;;;5138804;27;20288;-70
2022/04/10 10:58:47;;;;;;;10.85;6.30;;;10.60;99.90;;;;;;5140042;27;20263;-70
2022/04/10 11:01:20;;;;;;;8.63;7.55;;;10.90;99.90;;;;;;5139886;27;20217;-70
2022/04/10 11:04:03;;;;;;;8.00;7.20;;;11.50;99.90;;;;;;5139578;27;20687;-70
2022/04/10 11:06:33;;;;;;;6.82;6.05;;;12.10;99.90;;;;;;5138690;27;20213;-70
2022/04/10 11:09:28;;;;;;;11.98;10.88;;;12.70;99.90;;;;;;5138448;27;20237;-70
2022/04/10 11:11:57;;;;;;;7.57;6.77;;;12.60;99.90;;;;;;5137105;27;20189;-70
2022/04/10 11:14:39;;;;;;;11.63;6.87;;;12.70;99.90;;;;;;5138470;27;21290;-70
2022/04/10 11:17:21;;;;;;;7.67;7.07;;;12.80;99.90;;;;;;5136024;27;20615;-70
2022/04/10 11:20:07;;;;;;;7.43;6.90;;;13.40;99.90;;;;;;5135830;27;20615;-70
2022/04/10 11:22:36;;;;;;;8.73;7.20;;;13.70;99.90;;;;;;5136274;27;20606;-70
2022/04/10 11:25:09;;;;;;;9.57;7.60;;;13.70;99.90;;;;;;5135849;27;20615;-70
2022/04/10 11:27:47;;;;;;;8.10;7.40;;;13.90;99.90;;;;;;5136061;27;21122;-71
2022/04/10 11:30:21;;;;;;;7.47;6.97;;;14.10;99.90;;;;;;5136442;27;20546;-70
2022/04/10 11:32:52;;;;;;;7.93;7.43;;;13.90;99.90;;;;;;5135755;27;20619;-71
2022/04/10 11:35:27;;;;;;;7.77;7.30;;;14.60;99.90;;;;;;5117591;27;20968;-70
2022/04/10 11:37:56;;;;;;;8.17;7.37;;;14.20;99.90;;;;;;5135912;27;20619;-70
2022/04/10 11:40:31;;;;;;;9.77;7.30;;;13.70;99.90;;;;;;5136413;27;20607;-71
2022/04/10 11:42:59;;;;;;;9.13;7.33;;;13.40;99.90;;;;;;5136328;27;20642;-70
2022/04/10 11:45:27;;;;;;;7.80;7.20;;;12.80;99.90;;;;;;5136755;27;20604;-70
2022/04/10 11:47:54;;;;;;;8.20;7.43;;;12.60;99.90;;;;;;5136084;27;20615;-70
2022/04/10 11:50:22;;;;;;;7.70;7.03;;;12.40;99.90;;;;;;5136715;27;20948;-70
2022/04/10 11:53:00;;;;;;;8.37;7.57;;;12.30;99.90;;;;;;5136818;27;20612;-70
2022/04/10 11:55:44;;;;;;;10.93;8.20;;;12.30;99.90;;;;;;5136689;27;20567;-70
2022/04/10 11:58:17;;;;;;;8.13;7.53;;;11.90;99.90;;;;;;5136854;27;20673;-70
2022/04/10 12:00:46;;;;;;;8.63;7.90;;;11.50;99.90;;;;;;5117893;27;21134;-70
2022/04/10 12:03:12;;;;;;;8.20;7.43;;;13.40;99.90;;;;;;5135708;27;20674;-71
2022/04/10 12:05:39;;;;;;;7.40;6.77;;;14.80;99.90;;;;;;5136316;27;20635;-70
2022/04/10 12:08:06;;;;;;;8.40;7.50;;;15.50;99.90;;;;;;5136231;27;20603;-70
2022/04/10 12:10:33;;;;;;;8.07;7.40;;;15.20;99.90;;;;;;5136228;27;20572;-70
2022/04/10 12:13:01;;;;;;;9.30;8.60;;;13.50;99.90;;;;;;5135633;27;20611;-70
2022/04/10 12:15:28;;;;;;;7.20;6.70;;;13.80;99.90;;;;;;5135800;27;20600;-71
2022/04/10 12:18:11;;;;;;;9.10;8.00;;;14.70;99.90;;;;;;5135517;27;21150;-70
2022/04/10 12:20:40;;;;;;;7.53;6.90;;;14.10;99.90;;;;;;5135592;27;20579;-70
2022/04/10 12:23:19;;;;;;;8.10;7.40;;;13.80;99.90;;;;;;5135756;27;20655;-70
2022/04/10 12:25:50;;;;;;;9.40;8.50;;;13.00;99.90;;;;;;5135434;27;20620;-70
2022/04/10 12:28:18;;;;;;;9.03;8.00;;;12.80;99.90;;;;;;5136249;27;20614;-70
2022/04/10 12:30:46;;;;;;;8.33;7.77;;;12.60;99.90;;;;;;5135617;27;20612;-70
2022/04/10 12:33:13;;;;;;;8.30;7.60;;;12.60;99.90;;;;;;5136054;27;20611;-71
2022/04/10 12:35:43;;;;;;;8.20;7.60;;;12.40;99.90;;;;;;5135718;27;20608;-70
2022/04/10 12:38:13;;;;;;;8.93;7.50;;;12.40;99.90;;;;;;5135087;27;20619;-70
2022/04/10 12:40:41;;;;;;;8.03;7.43;;;12.70;99.90;;;;;;5134747;27;20582;-71
2022/04/10 12:43:15;;;;;;;9.43;7.73;;;13.50;99.90;;;;;;5134111;27;20681;-70
2022/04/10 12:45:43;;;;;;;7.30;6.80;;;13.70;99.90;;;;;;5134736;27;20691;-70
2022/04/10 12:48:24;;;;;;;8.03;7.30;;;13.80;99.90;;;;;;5134528;27;20611;-70
2022/04/10 12:51:26;;;;;;;6.93;6.53;;;13.80;99.90;;;;;;5116208;28;20611;-69
2022/04/10 12:53:53;;;;;;;8.37;7.70;;;12.80;99.90;;;;;;5015692;28;20632;-70
2022/04/10 12:56:21;;;;;;;7.30;6.87;;;12.60;99.90;;;;;;5114460;28;21007;-70
2022/04/10 12:58:49;;;;;;;9.40;7.93;;;12.10;99.90;;;;;;5134718;27;20984;-70
2022/04/10 13:01:26;;;;;;;8.97;8.13;;;11.50;99.90;;;;;;5135145;27;20607;-70
2022/04/10 13:03:52;;;;;;;8.43;7.73;;;11.50;99.90;;;;;;5119034;28;20650;-71
2022/04/10 13:06:22;;;;;;;8.60;8.00;;;11.50;99.90;;;;;;5134856;27;21249;-70
2022/04/10 13:08:49;;;;;;;8.20;7.50;;;11.20;99.90;;;;;;5116634;28;20237;-70
2022/04/10 13:11:15;;;;;;;7.05;6.40;;;11.10;99.90;;;;;;5136105;28;20194;-70